Time;durP1;ratioP1;P1;durP2;ratioP2;P2;SDS_P1;SDS_P2;PMS_P1;PMS_P2;Temp;Humidity;BMP_temperature;BMP_pressure;BME280_temperature;BME280_humidity;BME280_pressure;Samples;Min_cycle;Max_cycle;Signal;HPM_P1;HPM_P2
2023/09/08 06:14:23;;;;;;;3.90;3.57;;;;;;;17.27;66.58;99195.09;5008719;28;42594;-75
2023/09/08 06:16:52;;;;;;;6.13;3.37;;;;;;;17.41;66.98;99197.44;4977049;28;44113;-75
2023/09/08 06:19:19;;;;;;;4.30;3.90;;;;;;;17.55;66.57;99197.13;4993444;28;41155;-75
2023/09/08 06:21:47;;;;;;;5.03;3.47;;;;;;;17.70;66.56;99189.63;4977163;28;41724;-75
2023/09/08 06:24:14;;;;;;;4.57;4.07;;;;;;;17.85;66.36;99193.66;4976925;28;44235;-75
2023/09/08 06:26:42;;;;;;;4.57;3.67;;;;;;;18.03;66.10;99207.28;4993334;28;42584;-75
2023/09/08 06:29:10;;;;;;;4.50;3.93;;;;;;;18.18;66.42;99200.56;4976723;28;39739;-75
2023/09/08 06:31:39;;;;;;;3.73;3.27;;;;;;;18.38;65.86;99197.94;4993481;28;42455;-75
2023/09/08 06:34:06;;;;;;;7.53;3.83;;;;;;;18.47;66.39;99181.03;4993033;28;42970;-75
2023/09/08 06:36:39;;;;;;;5.33;3.80;;;;;;;18.73;66.40;99194.81;5010987;28;42299;-75
2023/09/08 06:39:07;;;;;;;3.80;3.40;;;;;;;18.90;65.88;99191.44;4994213;28;41018;-75
2023/09/08 06:41:35;;;;;;;5.20;3.93;;;;;;;19.04;65.79;99192.88;4993970;28;42139;-75
2023/09/08 06:44:05;;;;;;;4.33;3.60;;;;;;;19.21;65.45;99193.00;4994032;28;43734;-75
2023/09/08 06:46:32;;;;;;;6.93;3.80;;;;;;;19.45;65.05;99197.91;4994301;28;42311;-75
2023/09/08 06:49:02;;;;;;;5.00;3.93;;;;;;;19.62;64.42;99197.22;4993844;28;41626;-75
2023/09/08 06:51:29;;;;;;;4.03;3.47;;;;;;;19.77;65.24;99196.75;4977711;28;41832;-74
2023/09/08 06:53:57;;;;;;;4.03;3.60;;;;;;;19.91;64.54;99194.44;4993976;28;43827;-75
2023/09/08 06:56:28;;;;;;;4.90;4.20;;;;;;;20.07;64.22;99201.88;4977733;28;42256;-74
2023/09/08 06:58:58;;;;;;;5.77;4.53;;;;;;;20.21;65.03;99195.19;4993752;28;41195;-75
2023/09/08 07:01:26;;;;;;;4.77;3.90;;;;;;;20.51;64.13;99196.78;4993895;28;41747;-75
2023/09/08 07:03:54;;;;;;;4.70;4.07;;;;;;;20.76;63.69;99206.81;4993750;28;42839;-74
2023/09/08 07:06:23;;;;;;;5.60;4.10;;;;;;;21.06;62.93;99211.81;4976215;28;41267;-75
2023/09/08 07:08:51;;;;;;;6.27;3.80;;;;;;;21.51;61.48;99219.00;4976074;28;40505;-75
2023/09/08 07:11:19;;;;;;;5.30;4.50;;;;;;;21.85;60.96;99222.59;4992621;28;40902;-75
2023/09/08 07:13:48;;;;;;;4.53;3.73;;;;;;;22.10;59.82;99231.72;4992624;28;43810;-75
2023/09/08 07:16:16;;;;;;;5.07;4.57;;;;;;;22.39;58.94;99239.44;4976580;28;43488;-75
2023/09/08 07:18:43;;;;;;;4.83;4.00;;;;;;;22.63;58.68;99237.84;4976737;28;40117;-75
2023/09/08 07:21:11;;;;;;;5.87;4.00;;;;;;;22.86;59.65;99222.81;4992707;28;42468;-75
2023/09/08 07:23:40;;;;;;;4.57;4.17;;;;;;;23.16;59.52;99229.44;4976116;28;41416;-75
2023/09/08 07:26:10;;;;;;;4.40;3.97;;;;;;;23.44;58.28;99228.09;4989622;28;42307;-75
2023/09/08 07:28:37;;;;;;;4.53;3.83;;;;;;;23.78;58.62;99224.41;4992591;28;40922;-75
2023/09/08 07:31:09;;;;;;;4.50;3.70;;;;;;;24.09;57.51;99229.94;4975997;28;40880;-76
2023/09/08 07:33:39;;;;;;;5.03;4.30;;;;;;;24.32;57.10;99234.47;4992559;28;42422;-75
2023/09/08 07:36:07;;;;;;;4.87;3.30;;;;;;;24.60;56.47;99225.91;4992147;28;42487;-75
2023/09/08 07:38:36;;;;;;;5.10;4.00;;;;;;;25.06;54.76;99229.56;4993039;28;41170;-76
2023/09/08 07:41:04;;;;;;;5.23;3.90;;;;;;;25.54;53.59;99230.22;4993437;28;41683;-75
2023/09/08 07:43:33;;;;;;;4.00;3.63;;;;;;;26.00;53.13;99233.72;4993214;28;43811;-75
2023/09/08 07:46:00;;;;;;;4.00;3.47;;;;;;;26.39;51.68;99247.09;4993453;28;41948;-75
2023/09/08 07:48:28;;;;;;;6.50;3.30;;;;;;;26.92;49.64;99258.66;4993431;28;41933;-79
2023/09/08 07:50:56;;;;;;;4.87;3.90;;;;;;;27.65;46.11;99268.50;5009712;28;40899;-78
2023/09/08 07:53:23;;;;;;;3.73;3.43;;;;;;;28.18;44.69;99281.56;4976974;28;44457;-79
2023/09/08 07:55:51;;;;;;;3.70;3.40;;;;;;;28.85;44.89;99275.47;4993762;28;42097;-79
2023/09/08 07:58:20;;;;;;;4.30;3.53;;;;;;;30.38;43.06;99277.41;4977267;28;40221;-79
2023/09/08 08:00:47;;;;;;;3.80;3.23;;;;;;;31.70;40.60;99299.66;4993728;28;41664;-79
2023/09/08 09:02:59;;;;;;;3.53;3.22;;;;;;;41.25;24.48;99339.34;5017872;28;43029;-79
2023/09/08 09:05:27;;;;;;;5.47;3.17;;;;;;;42.93;22.30;99347.31;4976153;28;39499;-78
2023/09/08 09:07:56;;;;;;;3.40;3.10;;;;;;;44.47;21.29;99328.13;4994219;28;42576;-78
2023/09/08 09:10:24;;;;;;;3.83;3.53;;;;;;;46.18;20.36;99341.56;5011530;28;42000;-79
2023/09/08 09:12:52;;;;;;;3.33;3.08;;;;;;;47.44;18.88;99340.09;4961633;28;41227;-78
2023/09/08 09:15:29;;;;;;;3.90;3.50;;;;;;;48.06;18.34;99334.22;5011767;28;41685;-79
2023/09/08 09:18:06;;;;;;;3.65;3.45;;;;;;;47.79;17.88;99323.31;5004977;28;41811;-79
2023/09/08 09:20:35;;;;;;;3.78;3.47;;;;;;;47.04;17.96;99324.44;4978469;28;20494;-78
2023/09/08 09:23:03;;;;;;;4.38;3.55;;;;;;;45.62;18.38;99317.72;4970030;28;42091;-79
2023/09/08 09:25:32;;;;;;;3.13;2.92;;;;;;;44.25;19.67;99320.41;4977625;28;40265;-79
2023/09/08 09:28:02;;;;;;;2.70;2.50;;;;;;;43.30;19.26;99321.50;4961950;28;41232;-79
2023/09/08 09:30:48;;;;;;;3.20;2.90;;;;;;;42.43;20.29;99308.81;4977326;28;44281;-79
2023/09/08 09:33:17;;;;;;;3.88;2.95;;;;;;;41.91;21.31;99302.00;4994264;28;41147;-79
2023/09/08 09:35:47;;;;;;;3.38;2.97;;;;;;;41.50;21.39;99285.56;4993911;28;42698;-79
2023/09/08 09:38:16;;;;;;;3.38;2.78;;;;;;;41.19;21.69;99298.78;4962729;28;42293;-78
2023/09/08 09:40:46;;;;;;;3.42;3.13;;;;;;;40.74;22.62;99288.66;4978241;28;42869;-78
2023/09/08 09:43:15;;;;;;;2.90;2.70;;;;;;;40.52;22.63;99255.66;5012394;28;42440;-79
2023/09/08 09:45:44;;;;;;;3.03;2.83;;;;;;;40.12;22.06;99294.53;4995007;28;41960;-79
2023/09/08 09:48:14;;;;;;;3.67;3.38;;;;;;;39.12;23.81;99266.31;4991181;28;40557;-78
2023/09/08 09:50:43;;;;;;;3.55;3.17;;;;;;;38.40;24.65;99273.38;4997135;28;42150;-77
2023/09/08 09:53:13;;;;;;;3.78;3.22;;;;;;;38.31;24.83;99260.31;4989811;28;41134;-79
2023/09/08 09:55:41;;;;;;;3.80;3.50;;;;;;;38.70;24.77;99258.91;4959208;28;39934;-78
2023/09/08 09:58:11;;;;;;;3.47;3.17;;;;;;;38.60;24.41;99264.41;4975078;28;41540;-78
2023/09/08 10:00:40;;;;;;;4.45;4.05;;;;;;;37.94;24.62;99258.38;4975467;28;41970;-77
2023/09/08 10:46:12;;;;;;;3.25;2.95;;;;;;;41.03;22.38;99243.53;5030830;28;43141;-81
2023/09/08 10:48:43;;;;;;;3.63;3.33;;;;;;;41.05;21.86;99252.44;4994924;28;41966;-79
2023/09/08 10:51:14;;;;;;;3.33;3.03;;;;;;;40.78;22.44;99238.94;5028668;28;43237;-80
2023/09/08 10:53:41;;;;;;;3.50;3.20;;;;;;;40.21;23.15;99240.13;5014203;28;40982;-79
2023/09/08 10:56:09;;;;;;;3.90;3.25;;;;;;;39.76;23.09;99227.94;5013669;28;42114;-79
2023/09/08 10:58:39;;;;;;;4.05;3.50;;;;;;;39.40;24.16;99223.44;5014034;28;42824;-79
2023/09/08 11:01:36;;;;;;;3.25;2.95;;;;;;;39.03;23.84;99187.63;4989171;28;43007;-80
2023/09/08 11:10:58;;;;;;;3.47;2.85;;;;;;;39.43;22.78;99221.00;5026938;28;42724;-80
2023/09/08 11:13:26;;;;;;;3.33;3.03;;;;;;;39.44;23.10;99211.53;5011490;28;39786;-80
2023/09/08 11:15:53;;;;;;;3.33;3.08;;;;;;;39.42;24.35;99205.47;4995911;28;41149;-80
2023/09/08 11:18:29;;;;;;;3.10;2.80;;;;;;;39.60;24.08;99211.56;5012741;28;41071;-79
2023/09/08 11:20:58;;;;;;;3.15;2.85;;;;;;;40.10;22.52;99221.81;5012695;28;41748;-80
2023/09/08 11:23:26;;;;;;;3.70;3.40;;;;;;;40.86;21.58;99219.72;5012553;28;42286;-79
2023/09/08 11:25:54;;;;;;;3.38;3.08;;;;;;;41.92;21.92;99211.78;5012379;28;39752;-80
2023/09/08 11:28:23;;;;;;;3.40;3.10;;;;;;;42.61;20.73;99221.72;4996016;28;40324;-79
2023/09/08 11:34:43;;;;;;;2.95;2.75;;;;;;;42.20;21.04;99205.44;5023055;28;42992;-80
2023/09/08 11:37:21;;;;;;;4.13;2.92;;;;;;;43.56;19.18;99215.97;5030599;28;42197;-80
2023/09/08 11:43:21;;;;;;;2.78;2.58;;;;;;;46.53;17.10;99238.09;4995763;28;42406;-80
2023/09/08 11:45:50;;;;;;;2.90;2.20;;;;;;;47.56;16.30;99241.22;5013264;28;42367;-80
2023/09/08 11:52:32;;;;;;;2.47;2.28;;;;;;;50.73;13.78;99249.19;4893060;29;42999;-80
2023/09/08 11:55:23;;;;;;;2.90;2.60;;;;;;;51.41;13.87;99195.72;4942064;28;41699;-80
2023/09/08 11:58:14;;;;;;;2.90;2.70;;;;;;;52.31;12.57;99228.97;5012809;28;42500;-81
2023/09/08 12:07:25;;;;;;;3.05;2.85;;;;;;;53.57;12.21;99223.13;5024073;28;43349;-81
2023/09/08 12:09:53;;;;;;;3.75;3.42;;;;;;;53.54;11.50;99229.56;4995487;28;41539;-81
2023/09/08 12:12:21;;;;;;;3.17;2.97;;;;;;;52.62;11.97;99206.38;5011507;28;39923;-81
2023/09/08 12:14:48;;;;;;;3.05;2.85;;;;;;;51.77;12.99;99215.38;5029534;28;42702;-81
2023/09/08 12:17:18;;;;;;;2.97;2.78;;;;;;;51.68;13.34;99206.25;5029309;28;43856;-81
2023/09/08 12:19:45;;;;;;;3.33;3.10;;;;;;;51.88;12.51;99215.66;5029414;28;43241;-80
2023/09/08 12:22:17;;;;;;;3.10;2.90;;;;;;;52.05;12.36;99216.19;4994883;28;39855;-79
2023/09/08 12:25:02;;;;;;;2.92;2.72;;;;;;;52.43;12.08;99214.75;4979258;28;42106;-81
2023/09/08 12:27:30;;;;;;;2.67;2.47;;;;;;;52.74;12.08;99202.63;4980794;28;44305;-80
2023/09/08 12:30:00;;;;;;;3.08;2.88;;;;;;;52.93;11.91;99205.50;5011703;28;41879;-82
2023/09/08 12:32:30;;;;;;;2.97;2.78;;;;;;;52.88;11.48;99213.44;4995006;28;40010;-81
2023/09/08 12:34:58;;;;;;;2.90;2.70;;;;;;;52.50;12.32;99192.31;4995036;28;42914;-81
2023/09/08 12:44:55;;;;;;;2.90;2.70;;;;;;;52.27;12.83;99134.78;4985063;28;40082;-81
2023/09/08 12:50:49;;;;;;;2.88;2.60;;;;;;;53.04;11.81;99195.28;4980621;28;41883;-81
2023/09/08 12:53:17;;;;;;;2.58;2.40;;;;;;;53.29;11.93;99178.03;5011066;28;41647;-82
2023/09/08 13:13:56;;;;;;;3.05;2.80;;;;;;;52.67;12.60;99163.66;4973701;28;40727;-82
2023/09/08 13:16:50;;;;;;;2.78;2.58;;;;;;;52.35;12.00;99159.22;4957781;28;42385;-81
2023/09/08 13:19:39;;;;;;;2.58;2.40;;;;;;;51.93;12.21;99139.97;4973721;28;41374;-81
2023/09/08 13:22:19;;;;;;;2.47;2.28;;;;;;;51.57;12.93;99109.88;4973978;28;40984;-81
2023/09/08 13:31:03;;;;;;;2.72;2.53;;;;;;;51.47;12.70;99143.44;5029201;28;42597;-81
2023/09/08 13:33:32;;;;;;;2.35;2.15;;;;;;;51.37;12.82;99139.16;5030981;28;41902;-81
2023/09/08 13:36:35;;;;;;;4.25;2.47;;;;;;;51.18;12.68;99103.09;5014217;28;42667;-81
2023/09/08 13:48:19;;;;;;;2.83;2.63;;;;;;;49.37;12.70;99124.34;5032864;28;42432;-81
2023/09/08 13:54:00;;;;;;;2.85;2.65;;;;;;;47.85;14.98;99091.72;5012158;28;41639;-80
2023/09/08 13:56:28;;;;;;;3.17;2.97;;;;;;;47.41;15.84;99088.19;4998262;28;43300;-80
2023/09/08 13:58:56;;;;;;;2.95;2.58;;;;;;;47.07;15.22;99099.41;4998196;28;40269;-81
2023/09/08 14:01:24;;;;;;;3.25;2.97;;;;;;;46.42;15.37;99095.50;4998130;28;40654;-80
2023/09/08 14:03:52;;;;;;;3.38;3.08;;;;;;;45.87;15.88;99089.50;4998365;28;41801;-80
2023/09/08 14:06:21;;;;;;;2.35;2.17;;;;;;;45.50;16.07;99087.97;4944846;28;42423;-80
2023/09/08 14:08:50;;;;;;;3.67;2.75;;;;;;;45.00;16.51;99065.69;4961867;28;41868;-80
2023/09/08 14:11:18;;;;;;;2.90;2.70;;;;;;;44.67;17.27;99083.78;4921667;28;44675;-80
2023/09/08 14:13:46;;;;;;;3.10;2.80;;;;;;;44.20;17.13;99063.56;4937645;28;43392;-81
2023/09/08 14:16:13;;;;;;;2.88;2.67;;;;;;;43.97;16.83;99079.38;4953607;28;41395;-80
2023/09/08 14:18:41;;;;;;;2.92;2.72;;;;;;;43.57;17.08;99072.59;4969550;28;40171;-81
2023/09/08 14:21:09;;;;;;;3.03;2.72;;;;;;;43.24;17.24;99068.13;4937726;28;41776;-80
2023/09/08 14:23:38;;;;;;;3.10;2.80;;;;;;;43.05;17.50;99078.44;4953575;28;42080;-79
2023/09/08 14:26:06;;;;;;;3.08;2.88;;;;;;;42.75;17.50;99076.94;4937211;28;41132;-81
2023/09/08 14:28:34;;;;;;;3.55;3.15;;;;;;;42.44;18.18;99069.00;4937221;28;41701;-79
2023/09/08 14:31:01;;;;;;;4.20;3.10;;;;;;;42.00;18.89;99027.53;4937091;28;41241;-80
2023/09/08 14:33:29;;;;;;;3.38;3.08;;;;;;;42.09;18.92;99053.56;4953189;28;42894;-80
2023/09/08 14:36:19;;;;;;;3.15;2.88;;;;;;;41.92;18.90;99047.63;4969654;28;42136;-80
2023/09/08 14:38:48;;;;;;;2.85;2.65;;;;;;;41.80;18.89;99061.94;5009539;28;41179;-80
2023/09/08 14:41:16;;;;;;;3.08;2.78;;;;;;;41.55;18.74;99060.25;4997736;28;40889;-80
2023/09/08 14:43:43;;;;;;;2.92;2.67;;;;;;;41.38;19.16;99042.34;5013897;28;42806;-80
2023/09/08 14:46:11;;;;;;;3.10;2.80;;;;;;;41.29;19.25;99060.78;5031662;28;41823;-79
2023/09/08 14:48:38;;;;;;;2.50;2.30;;;;;;;41.16;20.01;99053.94;4997427;28;41099;-79
2023/09/08 14:51:06;;;;;;;2.90;2.70;;;;;;;40.95;20.17;99052.41;5013818;28;40477;-79
2023/09/08 14:53:33;;;;;;;3.10;2.80;;;;;;;40.52;19.81;99041.84;4996693;28;41948;-78
2023/09/08 14:56:04;;;;;;;2.92;2.72;;;;;;;40.09;20.34;99037.84;5013593;28;41029;-79
2023/09/08 14:58:34;;;;;;;3.35;3.05;;;;;;;39.73;20.23;99052.94;4997070;28;40010;-80
2023/09/08 15:01:03;;;;;;;3.30;3.00;;;;;;;39.18;20.30;99053.81;4980895;28;40444;-79
2023/09/08 15:03:36;;;;;;;3.05;2.75;;;;;;;38.62;20.76;99056.50;4981317;28;42164;-80
2023/09/08 15:06:04;;;;;;;3.53;2.90;;;;;;;38.05;21.15;99043.53;4996518;28;41374;-80
2023/09/08 15:08:33;;;;;;;3.22;2.92;;;;;;;37.70;22.00;99038.66;4979237;28;41329;-78
2023/09/08 15:11:00;;;;;;;3.17;2.90;;;;;;;37.45;22.24;99031.00;5012342;28;42704;-79
2023/09/08 15:13:29;;;;;;;3.38;3.03;;;;;;;37.21;22.86;99025.03;5012069;28;43496;-78
2023/09/08 15:15:58;;;;;;;3.38;3.08;;;;;;;36.93;22.33;99033.59;5012081;28;43277;-78
2023/09/08 15:18:27;;;;;;;3.13;2.80;;;;;;;36.57;23.13;99024.97;5010971;28;40922;-78
2023/09/08 15:20:55;;;;;;;4.93;2.80;;;;;;;36.22;23.46;99021.81;4995749;28;40728;-78
2023/09/08 15:23:23;;;;;;;3.65;3.08;;;;;;;35.97;23.99;99019.56;4979313;28;41848;-79
2023/09/08 15:25:52;;;;;;;3.00;2.80;;;;;;;35.69;24.37;99023.28;4995600;28;42658;-78
2023/09/08 15:28:20;;;;;;;2.63;2.43;;;;;;;35.47;25.00;99016.91;4979402;28;39753;-77
2023/09/08 15:30:50;;;;;;;2.93;2.73;;;;;;;35.24;25.15;99015.97;5012644;28;42160;-77
2023/09/08 15:33:19;;;;;;;3.63;3.10;;;;;;;35.04;25.60;99001.88;4995348;28;41493;-78
2023/09/08 15:35:47;;;;;;;3.07;2.77;;;;;;;34.80;25.95;98994.88;4995320;28;41674;-77
2023/09/08 15:38:15;;;;;;;2.57;2.37;;;;;;;34.40;25.82;98971.03;5030472;28;41157;-77
2023/09/08 15:41:17;;;;;;;3.00;2.80;;;;;;;34.33;26.22;99003.34;5012998;28;40916;-79
2023/09/08 15:43:49;;;;;;;3.37;2.47;;;;;;;34.12;26.47;98999.34;4996294;28;41686;-78
2023/09/08 15:46:19;;;;;;;2.57;2.37;;;;;;;33.93;26.39;99003.34;4996264;28;41269;-80
2023/09/08 15:48:47;;;;;;;2.63;2.40;;;;;;;33.77;26.87;98999.44;5012525;28;41077;-77
2023/09/08 15:51:15;;;;;;;2.90;2.60;;;;;;;33.61;26.69;99000.16;5011932;28;41865;-78
2023/09/08 15:53:43;;;;;;;3.30;3.00;;;;;;;33.42;27.29;98995.88;4994763;28;43157;-78
2023/09/08 15:56:11;;;;;;;3.20;2.90;;;;;;;33.23;27.28;99003.38;4995377;28;41174;-79
2023/09/08 15:58:39;;;;;;;3.90;2.50;;;;;;;33.07;27.55;98988.44;4979913;28;40975;-78
2023/09/08 16:01:07;;;;;;;2.80;2.60;;;;;;;32.86;27.47;98978.06;4995997;28;42247;-78
2023/09/08 16:03:36;;;;;;;3.40;3.10;;;;;;;32.81;27.76;98986.16;4995867;28;41192;-79
2023/09/08 16:06:04;;;;;;;2.50;2.30;;;;;;;32.69;28.07;98988.00;5011381;28;41527;-79
2023/09/08 16:08:32;;;;;;;3.57;3.27;;;;;;;32.61;28.38;98985.59;4994435;28;41070;-79
2023/09/08 16:11:01;;;;;;;2.77;2.57;;;;;;;32.45;28.23;98985.22;5012039;28;40987;-79
2023/09/08 16:13:28;;;;;;;2.67;2.47;;;;;;;32.36;28.59;98983.03;5011572;28;42882;-79
2023/09/08 16:15:56;;;;;;;2.60;2.40;;;;;;;32.28;28.74;98978.69;4995669;28;41824;-79
2023/09/08 16:18:24;;;;;;;2.70;2.50;;;;;;;32.19;28.69;98982.00;5011806;28;41061;-79
2023/09/08 16:20:53;;;;;;;3.33;2.90;;;;;;;32.07;29.11;98980.03;4995468;28;41043;-78
2023/09/08 16:23:21;;;;;;;2.90;2.63;;;;;;;31.97;29.20;98977.00;5029212;28;42335;-78
2023/09/08 16:25:48;;;;;;;2.93;2.63;;;;;;;31.88;29.38;98972.06;4995349;28;42340;-79
2023/09/08 16:28:18;;;;;;;4.10;2.77;;;;;;;31.78;29.85;98978.91;5011548;28;41619;-79
2023/09/08 16:30:45;;;;;;;2.57;2.00;;;;;;;31.70;29.77;98970.19;5014425;28;41837;-79
2023/09/08 16:33:14;;;;;;;2.47;2.27;;;;;;;31.62;29.74;98968.56;5014719;28;43731;-79
2023/09/08 16:35:42;;;;;;;2.93;2.47;;;;;;;31.47;29.90;98959.03;5014856;28;41077;-79
2023/09/08 16:38:12;;;;;;;3.43;2.20;;;;;;;31.43;29.82;98967.72;4999722;28;39915;-79
2023/09/08 16:40:40;;;;;;;2.17;2.07;;;;;;;31.36;30.38;98968.84;5015968;28;41757;-79
2023/09/08 16:43:08;;;;;;;3.17;2.20;;;;;;;31.27;30.43;98964.75;5015491;28;42899;-79
2023/09/08 16:45:35;;;;;;;3.67;2.33;;;;;;;31.13;30.47;98964.03;5016227;28;43523;-79
2023/09/08 16:48:03;;;;;;;3.20;2.90;;;;;;;31.02;30.66;98956.53;4999206;28;40927;-79
2023/09/08 16:50:31;;;;;;;2.70;2.50;;;;;;;30.84;30.79;98943.66;5015960;28;41527;-79
2023/09/08 16:52:58;;;;;;;2.40;2.20;;;;;;;30.89;30.85;98968.44;4998877;28;41571;-79
2023/09/08 16:55:27;;;;;;;3.03;2.70;;;;;;;30.78;30.78;98965.59;5015554;28;42263;-79
2023/09/08 16:58:02;;;;;;;2.50;2.30;;;;;;;30.69;30.88;98973.22;5032632;28;41118;-79
2023/09/08 17:00:30;;;;;;;2.30;2.10;;;;;;;30.61;30.54;98968.03;5033582;28;42144;-78
2023/09/08 17:02:57;;;;;;;3.80;2.30;;;;;;;30.52;31.08;98972.06;4999255;28;44404;-78
2023/09/08 17:05:25;;;;;;;2.90;2.40;;;;;;;30.41;30.97;98975.53;5015574;28;42074;-79
2023/09/08 17:07:56;;;;;;;2.33;2.17;;;;;;;30.29;30.95;98978.94;5013318;28;41060;-79
2023/09/08 17:10:24;;;;;;;3.50;2.40;;;;;;;30.05;31.17;98957.00;4997982;28;40535;-79
2023/09/08 17:12:53;;;;;;;3.43;2.20;;;;;;;30.11;31.18;98987.03;5014308;28;43809;-79
2023/09/08 17:15:20;;;;;;;2.67;2.47;;;;;;;30.02;31.29;98987.50;5014479;28;43109;-79
2023/09/08 17:18:07;;;;;;;3.07;2.40;;;;;;;29.82;31.48;98972.00;5030661;28;42200;-79
2023/09/08 17:20:34;;;;;;;2.50;2.30;;;;;;;29.80;31.45;98979.56;5014483;28;41237;-79
2023/09/08 17:23:07;;;;;;;2.67;2.33;;;;;;;29.71;31.72;98990.94;4964796;28;43583;-79
2023/09/08 17:25:34;;;;;;;2.53;2.33;;;;;;;29.53;32.23;98976.13;5031791;28;42315;-79
2023/09/08 17:28:04;;;;;;;2.40;2.00;;;;;;;29.45;31.93;98980.94;4997636;28;40931;-79
2023/09/08 17:30:32;;;;;;;2.47;2.27;;;;;;;29.33;32.25;98988.91;4997940;28;40844;-79
2023/09/08 17:32:59;;;;;;;2.47;2.27;;;;;;;29.23;32.51;98989.38;4997852;28;41668;-79
2023/09/08 17:35:26;;;;;;;2.63;2.17;;;;;;;29.11;32.66;98979.31;5013780;28;42993;-78
2023/09/08 17:37:54;;;;;;;2.57;2.20;;;;;;;28.97;32.65;98978.47;4998686;28;41130;-79
2023/09/08 17:40:22;;;;;;;4.43;2.20;;;;;;;28.83;32.90;98977.66;4998315;28;40552;-79
2023/09/08 17:42:49;;;;;;;2.30;2.10;;;;;;;28.72;33.05;98975.53;5014191;28;42435;-78
2023/09/08 17:45:18;;;;;;;3.43;2.37;;;;;;;28.58;33.29;98971.94;5014945;28;42825;-79
2023/09/08 17:47:46;;;;;;;2.50;2.30;;;;;;;28.47;33.39;98978.00;5014743;28;41456;-79
2023/09/08 17:50:13;;;;;;;2.20;2.00;;;;;;;28.28;33.79;98973.38;5032588;28;41704;-78
2023/09/08 17:52:42;;;;;;;2.50;2.30;;;;;;;28.08;33.74;98962.41;5014336;28;42077;-78
2023/09/08 17:55:09;;;;;;;3.17;2.40;;;;;;;28.06;34.26;98977.28;4998310;28;41803;-78
2023/09/08 17:57:37;;;;;;;2.43;2.23;;;;;;;27.91;34.37;98972.00;5032496;28;41940;-78
2023/09/08 18:00:06;;;;;;;2.60;2.40;;;;;;;27.76;34.59;98979.47;4998359;28;40954;-78
2023/09/08 18:02:37;;;;;;;2.60;2.40;;;;;;;27.59;34.67;98973.50;5014913;28;43894;-78
2023/09/08 18:05:06;;;;;;;2.90;2.40;;;;;;;27.49;34.83;98973.84;4998296;28;41523;-78
2023/09/08 18:07:33;;;;;;;3.00;2.30;;;;;;;27.36;35.44;98971.06;5012489;28;40976;-78
2023/09/08 18:10:01;;;;;;;3.47;3.10;;;;;;;27.24;35.40;98969.94;5013986;28;41685;-78
2023/09/08 18:12:28;;;;;;;2.73;2.47;;;;;;;27.02;35.56;98961.03;4997376;28;42950;-78
2023/09/08 18:14:56;;;;;;;3.63;2.50;;;;;;;26.86;36.00;98955.00;5013997;28;41803;-79
2023/09/08 18:17:23;;;;;;;3.87;2.47;;;;;;;26.86;36.62;98971.31;4996924;28;41286;-78
2023/09/08 18:19:53;;;;;;;2.67;2.43;;;;;;;26.75;36.21;98978.97;5013850;28;40643;-78
2023/09/08 18:22:20;;;;;;;3.90;2.27;;;;;;;26.56;36.23;98965.22;5013781;28;42019;-78
2023/09/08 18:24:48;;;;;;;3.23;2.47;;;;;;;26.48;36.50;98977.88;4997686;28;41172;-78
2023/09/08 18:27:15;;;;;;;3.93;2.67;;;;;;;26.37;36.64;98977.56;5013826;28;40139;-78
2023/09/08 18:29:43;;;;;;;3.40;2.47;;;;;;;26.24;37.14;98982.81;5013702;28;42119;-78
2023/09/08 18:32:11;;;;;;;3.17;2.60;;;;;;;26.10;37.19;98977.25;5013443;28;41685;-78
2023/09/08 18:34:38;;;;;;;5.07;2.63;;;;;;;25.94;37.44;98972.06;4997522;28;41167;-78
2023/09/08 18:37:07;;;;;;;3.53;3.07;;;;;;;25.85;37.63;98984.03;4981064;28;40001;-78
2023/09/08 18:39:35;;;;;;;3.30;3.00;;;;;;;25.51;37.83;98948.53;4998160;28;40345;-78
2023/09/08 18:42:03;;;;;;;4.30;3.10;;;;;;;25.62;38.21;98980.63;5014452;28;42218;-77
2023/09/08 18:44:30;;;;;;;3.80;2.80;;;;;;;25.46;38.41;98975.38;4997833;28;41435;-78
2023/09/08 18:46:58;;;;;;;4.50;3.10;;;;;;;25.41;38.47;98984.06;4997675;28;39366;-78
2023/09/08 18:49:25;;;;;;;3.03;2.63;;;;;;;25.29;39.07;98989.13;4998105;28;42084;-77
2023/09/08 18:51:53;;;;;;;4.77;3.23;;;;;;;25.19;38.93;98988.56;5031723;28;43756;-77
2023/09/08 18:54:26;;;;;;;4.30;2.90;;;;;;;25.08;39.21;98989.03;4997742;28;41342;-79
2023/09/08 18:56:54;;;;;;;3.60;2.50;;;;;;;24.98;39.35;98991.13;4997799;28;39704;-77
2023/09/08 18:59:22;;;;;;;3.70;2.97;;;;;;;24.77;39.54;98974.72;4997700;28;41700;-77
2023/09/08 19:01:50;;;;;;;3.00;2.70;;;;;;;24.76;39.83;98986.56;4997656;28;41708;-77
2023/09/08 19:04:17;;;;;;;3.37;2.60;;;;;;;24.67;40.06;98993.94;5014099;28;41857;-78
2023/09/08 19:06:45;;;;;;;3.33;2.70;;;;;;;24.58;40.07;98989.63;4996877;28;40583;-78
2023/09/08 19:09:13;;;;;;;2.90;2.60;;;;;;;24.48;40.06;98995.25;4996422;28;41645;-78
2023/09/08 19:11:42;;;;;;;3.07;2.70;;;;;;;24.38;40.83;98989.25;4996603;28;43054;-78
2023/09/08 19:14:09;;;;;;;4.23;2.57;;;;;;;24.27;40.57;98990.50;4996414;28;42455;-78
2023/09/08 19:16:37;;;;;;;4.97;2.50;;;;;;;24.12;40.93;98972.47;5012863;28;41038;-78
2023/09/08 19:19:05;;;;;;;2.70;2.50;;;;;;;24.11;40.91;98993.28;5012954;28;41658;-78
2023/09/08 19:21:32;;;;;;;2.80;2.60;;;;;;;23.96;41.45;98985.13;4996461;28;43542;-77
2023/09/08 19:24:00;;;;;;;2.87;2.57;;;;;;;23.94;41.46;98989.84;4996128;28;41067;-78
2023/09/08 19:26:28;;;;;;;2.57;2.37;;;;;;;23.84;41.75;98997.34;4964387;28;39373;-78
2023/09/08 19:28:57;;;;;;;3.07;2.17;;;;;;;23.74;42.62;98994.00;4996359;28;41873;-78
